Time;durP1;ratioP1;P1;durP2;ratioP2;P2;SDS_P1;SDS_P2;PMS_P1;PMS_P2;Temp;Humidity;BMP_temperature;BMP_pressure;BME280_temperature;BME280_humidity;BME280_pressure;Samples;Min_cycle;Max_cycle;Signal;HPM_P1;HPM_P2
2023/07/23 00:02:21;;;;;;;13.77;12.13;;;27.40;1.00;;;;;;5033631;28;20021;-63
2023/07/23 00:04:47;;;;;;;14.90;12.43;;;27.40;1.00;;;;;;5027234;28;20095;-64
2023/07/23 00:07:12;;;;;;;13.50;12.13;;;27.40;1.00;;;;;;5026349;28;20040;-63
2023/07/23 00:09:38;;;;;;;12.35;11.18;;;27.30;1.00;;;;;;5021685;28;20037;-63
2023/07/23 00:12:04;;;;;;;14.65;11.68;;;27.30;1.00;;;;;;5035224;28;20037;-63
2023/07/23 00:14:30;;;;;;;14.45;12.80;;;27.30;1.00;;;;;;5032345;28;20417;-63
2023/07/23 00:16:55;;;;;;;12.57;11.27;;;27.30;1.00;;;;;;5033182;28;20017;-63
2023/07/23 00:19:21;;;;;;;14.00;12.63;;;27.30;1.00;;;;;;5032111;28;20033;-63
2023/07/23 00:21:48;;;;;;;14.25;12.93;;;27.30;1.00;;;;;;5034595;28;20111;-63
2023/07/23 00:24:19;;;;;;;16.02;12.90;;;27.30;1.00;;;;;;5030210;28;20475;-63
2023/07/23 00:26:45;;;;;;;12.75;11.45;;;27.20;1.00;;;;;;5032853;28;20112;-63
2023/07/23 00:29:11;;;;;;;13.27;11.10;;;27.20;1.00;;;;;;5032439;28;20117;-63
2023/07/23 00:31:37;;;;;;;13.45;12.05;;;27.20;1.00;;;;;;5034409;28;20036;-63
2023/07/23 00:34:03;;;;;;;13.40;11.95;;;27.20;1.00;;;;;;5032036;28;20387;-63
2023/07/23 00:36:29;;;;;;;13.00;11.55;;;27.00;1.00;;;;;;5032275;28;20386;-63
2023/07/23 00:38:55;;;;;;;12.13;11.05;;;27.00;1.00;;;;;;5027929;28;20073;-63
2023/07/23 00:41:20;;;;;;;15.10;12.43;;;27.00;1.00;;;;;;5034512;28;20057;-63
2023/07/23 00:43:46;;;;;;;13.93;12.30;;;27.10;1.00;;;;;;5032102;28;20052;-63
2023/07/23 00:46:12;;;;;;;13.95;12.45;;;27.20;1.00;;;;;;5030604;28;20541;-63
2023/07/23 00:48:38;;;;;;;12.88;11.45;;;27.00;1.00;;;;;;5032428;28;20037;-63
2023/07/23 00:51:03;;;;;;;13.60;12.27;;;27.10;1.00;;;;;;5031683;28;20036;-63
2023/07/23 00:53:29;;;;;;;14.85;13.27;;;27.00;1.00;;;;;;5031788;28;20025;-63
2023/07/23 00:55:55;;;;;;;12.80;11.48;;;27.00;1.00;;;;;;5033680;28;20037;-63
2023/07/23 00:58:22;;;;;;;13.30;11.98;;;26.90;1.00;;;;;;5029689;28;20116;-63
2023/07/23 01:00:49;;;;;;;12.90;11.60;;;26.90;1.00;;;;;;5032280;28;20505;-63
2023/07/23 01:03:15;;;;;;;15.07;11.75;;;26.90;1.00;;;;;;5029589;28;20018;-63
2023/07/23 01:05:44;;;;;;;13.38;11.43;;;26.90;1.00;;;;;;5025659;28;20360;-63
2023/07/23 01:08:10;;;;;;;14.15;12.20;;;27.00;1.00;;;;;;5030320;28;20471;-63
2023/07/23 01:10:36;;;;;;;14.30;12.00;;;26.80;1.00;;;;;;5027576;28;20357;-63
2023/07/23 01:13:02;;;;;;;13.00;11.63;;;27.00;1.00;;;;;;5020046;28;20032;-63
2023/07/23 01:15:28;;;;;;;12.05;10.85;;;26.80;1.00;;;;;;5030289;28;20482;-63
2023/07/23 01:17:59;;;;;;;15.82;11.82;;;26.90;1.00;;;;;;5033349;28;20021;-63
2023/07/23 01:20:24;;;;;;;13.32;11.93;;;26.90;1.00;;;;;;5029210;28;20079;-63
2023/07/23 01:22:50;;;;;;;13.65;11.55;;;26.90;1.00;;;;;;5021649;28;20025;-63
2023/07/23 01:25:16;;;;;;;14.10;11.13;;;26.80;1.00;;;;;;5029263;28;20049;-63
2023/07/23 01:27:41;;;;;;;12.63;11.38;;;26.80;1.00;;;;;;5031729;28;20040;-63
2023/07/23 01:30:13;;;;;;;13.13;11.73;;;26.80;1.00;;;;;;5021090;28;20034;-63
2023/07/23 01:32:39;;;;;;;11.80;10.65;;;26.80;1.00;;;;;;5030683;28;20025;-63
2023/07/23 01:35:14;;;;;;;13.65;12.20;;;26.80;1.00;;;;;;5029400;28;20052;-63
2023/07/23 01:37:41;;;;;;;14.73;12.82;;;26.70;1.00;;;;;;5029085;28;20539;-63
2023/07/23 01:40:07;;;;;;;12.75;11.27;;;26.60;1.00;;;;;;5029112;28;20080;-63
2023/07/23 01:42:34;;;;;;;12.02;10.52;;;26.70;1.00;;;;;;5030090;28;20026;-63
2023/07/23 01:45:06;;;;;;;14.40;11.02;;;26.60;1.00;;;;;;5031335;28;20029;-63
2023/07/23 01:47:32;;;;;;;15.35;11.30;;;26.60;1.00;;;;;;5033475;28;20033;-63
2023/07/23 01:49:58;;;;;;;11.48;10.35;;;26.70;1.00;;;;;;5033465;28;20037;-63
2023/07/23 01:52:23;;;;;;;12.93;11.30;;;26.70;1.00;;;;;;5019832;28;20026;-63
2023/07/23 01:54:49;;;;;;;11.40;10.20;;;26.70;1.00;;;;;;5046873;28;20045;-63
2023/07/23 01:57:14;;;;;;;13.60;10.95;;;26.80;1.00;;;;;;5022300;28;20026;-63
2023/07/23 01:59:40;;;;;;;13.55;11.27;;;26.70;1.00;;;;;;5020928;28;20049;-64
2023/07/23 02:02:06;;;;;;;13.18;11.13;;;26.70;1.00;;;;;;5031083;28;20026;-63
2023/07/23 02:04:32;;;;;;;13.30;11.70;;;26.60;1.00;;;;;;5027693;28;20483;-63
2023/07/23 02:06:58;;;;;;;12.00;10.63;;;26.60;1.00;;;;;;5029630;28;20071;-63
2023/07/23 02:09:23;;;;;;;15.00;10.07;;;26.70;1.00;;;;;;5021524;28;20118;-63
2023/07/23 02:11:49;;;;;;;11.45;10.10;;;26.60;1.00;;;;;;5024061;28;20034;-63
2023/07/23 02:14:14;;;;;;;11.57;10.07;;;26.60;1.00;;;;;;5028044;28;20049;-63
2023/07/23 02:16:40;;;;;;;10.77;9.50;;;26.60;1.00;;;;;;5033115;28;20032;-63
2023/07/23 02:19:06;;;;;;;11.95;10.73;;;26.60;1.00;;;;;;5022323;28;20038;-63
2023/07/23 02:21:31;;;;;;;12.02;10.73;;;26.60;1.00;;;;;;5021995;28;20040;-63
2023/07/23 02:23:57;;;;;;;12.15;9.45;;;26.60;1.00;;;;;;5018094;28;20043;-63
2023/07/23 02:26:23;;;;;;;12.13;10.27;;;26.50;1.00;;;;;;5026968;28;20021;-63
2023/07/23 02:28:48;;;;;;;11.68;10.50;;;26.40;1.00;;;;;;5033551;28;20029;-63
2023/07/23 02:31:14;;;;;;;10.82;9.75;;;26.40;1.00;;;;;;5034672;28;20022;-63
2023/07/23 02:33:39;;;;;;;12.30;10.80;;;26.40;1.00;;;;;;5033731;28;20475;-63
2023/07/23 02:36:05;;;;;;;11.35;9.73;;;26.50;1.00;;;;;;5026038;28;20052;-63
2023/07/23 02:38:31;;;;;;;13.10;11.32;;;26.40;1.00;;;;;;5034007;28;20059;-63
2023/07/23 02:41:01;;;;;;;11.48;10.35;;;26.40;1.00;;;;;;5032610;28;20025;-63
2023/07/23 02:43:26;;;;;;;11.77;10.02;;;26.30;1.00;;;;;;5036007;28;20032;-63
2023/07/23 02:45:52;;;;;;;14.25;10.98;;;26.30;1.00;;;;;;5036607;28;20469;-63
2023/07/23 02:48:18;;;;;;;15.48;11.60;;;26.30;1.00;;;;;;5036732;28;20034;-63
2023/07/23 02:50:43;;;;;;;11.70;10.13;;;26.30;1.00;;;;;;5034381;28;20367;-63
2023/07/23 02:53:09;;;;;;;10.95;9.85;;;26.30;1.00;;;;;;5031435;28;20442;-63
2023/07/23 02:55:35;;;;;;;11.93;10.18;;;26.20;1.00;;;;;;5031957;28;20052;-63
2023/07/23 02:58:03;;;;;;;11.02;9.82;;;26.30;1.00;;;;;;5034830;28;20022;-63
2023/07/23 03:00:30;;;;;;;11.82;10.45;;;26.30;1.00;;;;;;5035770;28;20034;-63
2023/07/23 03:02:55;;;;;;;10.50;9.48;;;26.30;1.00;;;;;;5030313;28;20484;-63
2023/07/23 03:05:24;;;;;;;11.65;10.02;;;26.30;1.00;;;;;;5033694;28;20021;-63
2023/07/23 03:07:51;;;;;;;14.48;9.70;;;26.30;1.00;;;;;;5036098;28;20123;-63
2023/07/23 03:10:19;;;;;;;11.55;10.35;;;26.30;1.00;;;;;;5032266;28;20130;-63
2023/07/23 03:12:44;;;;;;;12.23;10.73;;;26.10;1.00;;;;;;5032720;28;20112;-64
2023/07/23 03:15:10;;;;;;;12.27;10.32;;;26.10;1.00;;;;;;5035478;28;20084;-63
2023/07/23 03:17:36;;;;;;;10.25;9.25;;;26.10;1.00;;;;;;5022685;28;20501;-63
2023/07/23 03:20:03;;;;;;;11.07;9.77;;;26.10;1.00;;;;;;5027206;28;20032;-63
2023/07/23 03:22:29;;;;;;;11.70;10.50;;;26.00;1.00;;;;;;5065436;28;20028;-63
2023/07/23 03:24:55;;;;;;;11.27;9.93;;;26.10;1.00;;;;;;5034408;28;20391;-63
2023/07/23 03:27:20;;;;;;;10.35;8.80;;;26.00;1.00;;;;;;5026601;28;20412;-63
2023/07/23 03:29:46;;;;;;;10.77;9.48;;;26.10;1.00;;;;;;5035372;28;20029;-63
2023/07/23 03:32:11;;;;;;;11.90;9.95;;;26.00;1.00;;;;;;5034246;28;20025;-63
2023/07/23 03:34:37;;;;;;;9.93;8.75;;;26.10;1.00;;;;;;5035816;28;20044;-63
2023/07/23 03:37:03;;;;;;;12.80;10.07;;;26.10;1.00;;;;;;5032565;28;20034;-63
2023/07/23 03:39:28;;;;;;;12.02;9.85;;;25.90;1.00;;;;;;5031342;28;20475;-63
2023/07/23 03:41:54;;;;;;;11.15;10.05;;;26.00;1.00;;;;;;5029475;28;20048;-63
2023/07/23 03:44:20;;;;;;;10.88;9.77;;;26.10;1.00;;;;;;5035472;28;20475;-64
2023/07/23 03:47:14;;;;;;;10.82;9.82;;;25.90;1.00;;;;;;5034141;28;20467;-63
2023/07/23 03:49:41;;;;;;;11.75;10.48;;;25.90;1.00;;;;;;5031039;28;20057;-64
2023/07/23 03:52:07;;;;;;;12.05;10.32;;;25.80;1.00;;;;;;5031190;28;20036;-63
2023/07/23 03:54:34;;;;;;;13.07;10.88;;;25.70;1.00;;;;;;5034660;28;20479;-63
2023/07/23 03:57:00;;;;;;;12.68;11.38;;;25.70;1.00;;;;;;5033653;28;20164;-63
2023/07/23 03:59:33;;;;;;;14.10;10.40;;;25.60;1.00;;;;;;5027022;28;20076;-63
2023/07/23 04:01:59;;;;;;;13.60;11.45;;;25.70;1.00;;;;;;5017042;28;20022;-63
2023/07/23 04:04:24;;;;;;;13.98;12.50;;;25.90;1.00;;;;;;5066389;28;20135;-63
2023/07/23 04:06:50;;;;;;;14.15;12.68;;;25.90;1.00;;;;;;5029596;28;20064;-63
2023/07/23 04:09:16;;;;;;;15.35;12.05;;;25.90;1.00;;;;;;5030629;28;20030;-63
2023/07/23 04:11:42;;;;;;;13.63;12.23;;;25.80;1.00;;;;;;5034442;28;20383;-64
2023/07/23 04:14:08;;;;;;;14.35;12.18;;;25.90;1.00;;;;;;5032211;28;20061;-63
2023/07/23 04:16:34;;;;;;;14.27;12.93;;;25.90;1.00;;;;;;5032334;28;20048;-63
2023/07/23 04:18:59;;;;;;;14.35;12.90;;;25.70;1.00;;;;;;5027233;28;20061;-63
2023/07/23 04:21:25;;;;;;;15.02;13.43;;;25.80;1.00;;;;;;5025589;28;20029;-63
2023/07/23 04:23:53;;;;;;;14.55;13.10;;;25.80;1.00;;;;;;5032786;28;20033;-64
2023/07/23 04:26:21;;;;;;;16.40;14.45;;;25.70;1.00;;;;;;5025905;28;20364;-63
2023/07/23 04:28:47;;;;;;;17.35;14.55;;;25.70;1.00;;;;;;5019295;28;20033;-63
2023/07/23 04:31:13;;;;;;;15.32;13.73;;;25.80;1.00;;;;;;5032206;28;20025;-64
2023/07/23 04:33:39;;;;;;;15.48;13.88;;;25.60;1.00;;;;;;5016012;28;20044;-63
2023/07/23 04:36:07;;;;;;;16.13;14.43;;;25.70;1.00;;;;;;5014671;28;20040;-64
2023/07/23 04:38:33;;;;;;;16.80;15.07;;;25.70;1.00;;;;;;5030720;28;20022;-63
2023/07/23 04:40:58;;;;;;;15.57;14.00;;;25.70;1.00;;;;;;5017472;28;20030;-63
2023/07/23 04:43:24;;;;;;;20.75;14.85;;;25.80;1.00;;;;;;5021690;28;20152;-64
2023/07/23 04:45:50;;;;;;;16.88;14.95;;;25.60;1.00;;;;;;5015844;28;20030;-63
2023/07/23 04:48:16;;;;;;;18.33;14.82;;;25.50;1.00;;;;;;5015818;28;20053;-64
2023/07/23 04:50:42;;;;;;;16.25;14.32;;;25.50;1.00;;;;;;5017915;28;20541;-63
2023/07/23 04:53:08;;;;;;;17.83;13.93;;;25.40;1.00;;;;;;5033146;28;20112;-63
2023/07/23 04:55:34;;;;;;;16.88;15.02;;;25.40;1.00;;;;;;5032506;28;20072;-63
2023/07/23 04:58:00;;;;;;;16.20;14.52;;;25.60;1.00;;;;;;5025558;28;20424;-63
2023/07/23 05:00:27;;;;;;;16.33;14.63;;;25.40;1.00;;;;;;5015516;28;20135;-63
2023/07/23 05:02:53;;;;;;;17.08;14.82;;;25.40;1.00;;;;;;5027688;28;20032;-63
2023/07/23 05:05:19;;;;;;;20.35;15.00;;;25.40;1.00;;;;;;5022180;28;20022;-63
2023/07/23 05:07:44;;;;;;;16.25;14.65;;;25.40;1.00;;;;;;5030368;28;20494;-63
2023/07/23 05:10:10;;;;;;;15.70;13.98;;;25.40;1.00;;;;;;5030763;28;20048;-63
2023/07/23 05:12:36;;;;;;;18.30;15.45;;;25.40;1.00;;;;;;5024548;28;20030;-63
2023/07/23 05:15:15;;;;;;;17.05;14.80;;;25.40;1.00;;;;;;5029981;28;20037;-63
2023/07/23 05:17:41;;;;;;;17.83;15.95;;;25.50;1.00;;;;;;5029709;28;20025;-63
2023/07/23 05:20:08;;;;;;;16.95;14.57;;;25.40;1.00;;;;;;5033617;28;20100;-63
2023/07/23 05:22:39;;;;;;;17.20;14.95;;;25.40;1.00;;;;;;5032812;28;20053;-63
2023/07/23 05:25:05;;;;;;;18.45;14.88;;;25.30;1.00;;;;;;5032583;28;20040;-64
2023/07/23 05:27:31;;;;;;;18.70;15.02;;;25.20;1.00;;;;;;5023546;28;20026;-63
2023/07/23 05:29:56;;;;;;;18.27;15.02;;;25.20;1.00;;;;;;5032537;28;20386;-63
2023/07/23 05:32:22;;;;;;;15.90;14.20;;;25.30;1.00;;;;;;5026114;28;20017;-63
2023/07/23 05:34:48;;;;;;;23.60;14.88;;;25.40;1.00;;;;;;5024953;28;20040;-63
2023/07/23 05:37:14;;;;;;;16.80;14.95;;;25.50;1.00;;;;;;5023900;28;20459;-63
2023/07/23 05:39:39;;;;;;;16.60;14.43;;;25.60;1.00;;;;;;5023836;28;20034;-63
2023/07/23 05:42:05;;;;;;;18.02;15.30;;;25.40;1.00;;;;;;5032350;28;20018;-63
2023/07/23 05:44:34;;;;;;;16.65;14.38;;;25.50;1.00;;;;;;5030033;28;20033;-63
2023/07/23 05:46:59;;;;;;;16.55;14.82;;;25.60;1.00;;;;;;5028869;28;20025;-63
2023/07/23 05:49:25;;;;;;;17.35;15.27;;;25.50;1.00;;;;;;5031202;28;20030;-63
2023/07/23 05:51:52;;;;;;;20.23;15.80;;;25.50;1.00;;;;;;5032122;28;20025;-63
2023/07/23 05:54:17;;;;;;;18.02;13.45;;;25.50;1.00;;;;;;5031147;28;20080;-63
2023/07/23 05:56:43;;;;;;;19.05;14.88;;;25.60;1.00;;;;;;5028386;28;20076;-63
2023/07/23 05:59:09;;;;;;;20.85;15.65;;;25.60;1.00;;;;;;5023223;28;20049;-64
2023/07/23 06:01:35;;;;;;;18.92;15.88;;;25.50;1.00;;;;;;5031400;28;20387;-63
2023/07/23 06:04:01;;;;;;;18.95;16.95;;;25.50;1.00;;;;;;5026173;28;20037;-63
2023/07/23 06:06:28;;;;;;;17.30;14.98;;;25.50;1.00;;;;;;5032105;28;20033;-64
2023/07/23 06:08:54;;;;;;;17.02;14.30;;;25.40;1.00;;;;;;5031081;28;20068;-63
2023/07/23 06:11:21;;;;;;;18.50;15.90;;;25.40;1.00;;;;;;5029298;28;20503;-63
2023/07/23 06:13:46;;;;;;;18.35;13.65;;;25.40;1.00;;;;;;5019959;28;20077;-63
2023/07/23 06:16:12;;;;;;;15.13;12.73;;;25.60;1.00;;;;;;5030371;28;20060;-64
2023/07/23 06:18:38;;;;;;;18.55;14.52;;;25.60;1.00;;;;;;5031384;28;20357;-63
2023/07/23 06:21:04;;;;;;;17.40;15.52;;;25.70;1.00;;;;;;5031204;28;20124;-64
2023/07/23 06:23:31;;;;;;;16.95;14.63;;;25.70;1.00;;;;;;5032588;28;20022;-63
2023/07/23 06:25:57;;;;;;;17.13;15.30;;;25.70;1.00;;;;;;5030645;28;20112;-63
2023/07/23 06:28:23;;;;;;;17.10;14.52;;;25.70;1.00;;;;;;5031467;28;20109;-64
2023/07/23 06:30:53;;;;;;;16.80;14.65;;;25.70;1.00;;;;;;5028819;28;20026;-64
2023/07/23 06:33:18;;;;;;;17.70;14.27;;;25.70;1.00;;;;;;5015008;28;20018;-64
2023/07/23 06:35:44;;;;;;;17.75;13.65;;;25.70;1.00;;;;;;5022322;28;20380;-60
2023/07/23 06:38:10;;;;;;;18.27;16.08;;;25.80;1.00;;;;;;5029857;28;20034;-60
2023/07/23 06:40:36;;;;;;;19.40;17.30;;;25.70;1.00;;;;;;5031520;28;20028;-60
2023/07/23 06:43:02;;;;;;;18.30;14.68;;;25.80;1.00;;;;;;5029861;28;20022;-60
2023/07/23 06:45:28;;;;;;;14.70;13.18;;;26.00;1.00;;;;;;5031395;28;20021;-60
2023/07/23 06:47:55;;;;;;;16.05;14.20;;;26.00;1.00;;;;;;5029472;28;20034;-60
2023/07/23 06:50:21;;;;;;;14.60;13.05;;;26.00;1.00;;;;;;5029675;28;20049;-60
2023/07/23 06:52:47;;;;;;;13.40;11.90;;;26.00;1.00;;;;;;5021131;28;20122;-60
2023/07/23 06:55:13;;;;;;;12.23;10.98;;;26.10;1.00;;;;;;5026802;28;20037;-60
2023/07/23 06:57:39;;;;;;;12.73;10.40;;;26.10;1.00;;;;;;5028305;28;20022;-60
2023/07/23 07:00:07;;;;;;;14.20;12.15;;;26.30;1.00;;;;;;5026059;28;20128;-60
2023/07/23 07:02:33;;;;;;;12.30;10.90;;;26.30;1.00;;;;;;5030171;28;20431;-60
2023/07/23 07:04:58;;;;;;;13.38;12.00;;;26.30;1.00;;;;;;5030403;28;20061;-60
2023/07/23 07:07:24;;;;;;;17.20;12.32;;;26.40;1.00;;;;;;5023028;28;20060;-60
2023/07/23 07:09:50;;;;;;;29.00;21.40;;;26.40;1.00;;;;;;5029417;28;20061;-63
2023/07/23 07:12:15;;;;;;;21.30;18.02;;;26.40;1.00;;;;;;5032062;28;20075;-63
2023/07/23 07:14:41;;;;;;;20.58;14.65;;;26.30;1.00;;;;;;5030785;28;20037;-64
2023/07/23 07:17:07;;;;;;;17.95;15.13;;;26.30;1.00;;;;;;5033414;28;20032;-62
2023/07/23 07:19:32;;;;;;;16.50;14.80;;;26.20;1.00;;;;;;5034058;28;20100;-62
2023/07/23 07:21:58;;;;;;;18.20;16.33;;;26.10;1.00;;;;;;5031322;28;20026;-62
2023/07/23 07:24:24;;;;;;;19.77;15.25;;;26.00;1.00;;;;;;5034164;28;20486;-62
2023/07/23 07:26:49;;;;;;;23.50;19.27;;;26.10;1.00;;;;;;5027598;28;20026;-62
2023/07/23 07:29:15;;;;;;;21.60;18.30;;;26.30;1.00;;;;;;5024978;28;20530;-62
2023/07/23 07:31:41;;;;;;;16.65;14.80;;;26.30;1.00;;;;;;5033145;28;20078;-62
2023/07/23 07:34:06;;;;;;;55.97;49.15;;;26.50;1.00;;;;;;5029833;28;20052;-63
2023/07/23 07:36:32;;;;;;;17.92;16.02;;;26.50;1.00;;;;;;5027324;28;20026;-62
2023/07/23 07:38:58;;;;;;;33.40;27.25;;;26.60;1.00;;;;;;5031979;28;20032;-62
2023/07/23 07:41:23;;;;;;;14.27;12.88;;;26.60;1.00;;;;;;5029373;28;20379;-62
2023/07/23 07:43:49;;;;;;;17.58;14.40;;;26.50;1.00;;;;;;5029908;28;20084;-62
2023/07/23 07:46:15;;;;;;;17.05;14.90;;;26.60;1.00;;;;;;5035180;28;20029;-63
2023/07/23 07:48:42;;;;;;;15.57;13.90;;;26.70;1.00;;;;;;5034060;28;20026;-63
2023/07/23 07:51:09;;;;;;;29.23;24.48;;;26.60;1.00;;;;;;5035139;28;20502;-62
2023/07/23 07:53:36;;;;;;;15.75;14.10;;;26.70;1.00;;;;;;5035149;28;20028;-62
2023/07/23 07:56:02;;;;;;;15.98;13.02;;;26.90;1.00;;;;;;5035095;28;20116;-63
2023/07/23 07:58:28;;;;;;;28.98;25.77;;;27.10;1.00;;;;;;5033827;28;20046;-62
2023/07/23 08:00:59;;;;;;;20.75;17.13;;;27.10;1.00;;;;;;5034991;28;20026;-62
2023/07/23 08:03:27;;;;;;;36.25;30.05;;;27.10;1.00;;;;;;5034983;28;20029;-62
2023/07/23 08:05:55;;;;;;;18.55;16.63;;;27.10;1.00;;;;;;5035071;28;20061;-62
2023/07/23 08:08:25;;;;;;;18.30;13.50;;;27.20;1.00;;;;;;5020962;28;20018;-63
2023/07/23 08:10:55;;;;;;;22.58;18.85;;;27.20;1.00;;;;;;5034806;28;20033;-63
2023/07/23 08:13:21;;;;;;;14.60;12.10;;;27.20;1.00;;;;;;5035081;28;20037;-62
2023/07/23 08:15:50;;;;;;;15.20;13.63;;;27.00;1.00;;;;;;5034805;28;20045;-62
2023/07/23 08:18:16;;;;;;;22.95;19.98;;;27.10;1.00;;;;;;5034708;28;20454;-62
2023/07/23 08:20:43;;;;;;;15.65;13.10;;;27.10;1.00;;;;;;5034965;28;20026;-63
2023/07/23 08:23:09;;;;;;;22.40;20.02;;;27.20;1.00;;;;;;5034789;28;20060;-62
2023/07/23 08:25:36;;;;;;;20.95;17.80;;;27.40;1.00;;;;;;5034934;28;20033;-63
2023/07/23 08:28:02;;;;;;;13.68;10.73;;;27.50;1.00;;;;;;5034236;28;20036;-62
2023/07/23 08:30:29;;;;;;;15.88;14.23;;;27.60;1.00;;;;;;5034466;28;20022;-62
2023/07/23 08:32:56;;;;;;;13.57;12.18;;;27.60;1.00;;;;;;5034752;28;20078;-63
2023/07/23 08:35:23;;;;;;;14.13;11.35;;;27.60;1.00;;;;;;5034362;28;20038;-63
2023/07/23 08:37:49;;;;;;;17.85;14.90;;;27.70;1.00;;;;;;5034796;28;20017;-63
2023/07/23 08:40:15;;;;;;;18.52;16.63;;;27.50;1.00;;;;;;5034493;28;20025;-63
2023/07/23 08:42:44;;;;;;;15.75;14.10;;;27.60;1.00;;;;;;5034402;28;20483;-62
2023/07/23 08:45:15;;;;;;;20.50;17.80;;;27.80;1.00;;;;;;5034105;28;20033;-63
2023/07/23 08:47:45;;;;;;;16.58;13.43;;;27.90;1.00;;;;;;5034538;28;20057;-62
2023/07/23 08:50:13;;;;;;;21.95;19.63;;;28.00;1.00;;;;;;5034445;28;20037;-62
2023/07/23 08:52:41;;;;;;;17.00;13.07;;;28.00;1.00;;;;;;5033220;28;20109;-63
2023/07/23 08:55:07;;;;;;;16.45;13.95;;;28.10;1.00;;;;;;5033969;28;20529;-63
2023/07/23 08:57:33;;;;;;;11.95;10.65;;;28.10;1.00;;;;;;5033997;28;20017;-62
2023/07/23 09:00:01;;;;;;;14.43;11.20;;;28.20;1.00;;;;;;5033696;28;20049;-63
2023/07/23 09:02:28;;;;;;;12.45;11.07;;;28.20;1.00;;;;;;5034115;28;20032;-63
2023/07/23 09:04:54;;;;;;;13.77;12.10;;;28.20;1.00;;;;;;5026159;28;20121;-63
2023/07/23 09:07:20;;;;;;;29.70;25.08;;;28.20;1.00;;;;;;5026663;28;20116;-63
2023/07/23 09:09:49;;;;;;;18.48;15.38;;;28.20;1.00;;;;;;5032939;28;20033;-63
2023/07/23 09:12:16;;;;;;;17.45;13.23;;;28.10;1.00;;;;;;5033763;28;20036;-63
2023/07/23 09:14:43;;;;;;;18.25;12.35;;;28.30;1.00;;;;;;5033681;28;20045;-63
2023/07/23 09:17:17;;;;;;;27.80;24.60;;;28.30;99.90;;;;;;5033726;28;20017;-63
2023/07/23 09:19:42;;;;;;;28.67;24.15;;;28.30;99.90;;;;;;5033944;28;20044;-63
2023/07/23 09:22:08;;;;;;;19.52;16.95;;;28.40;99.90;;;;;;5033473;28;20025;-63
2023/07/23 09:24:34;;;;;;;16.02;13.93;;;28.50;99.90;;;;;;5028461;28;20053;-63
2023/07/23 09:27:01;;;;;;;20.40;14.68;;;28.70;99.90;;;;;;5029126;28;20108;-63
2023/07/23 09:29:37;;;;;;;19.52;15.25;;;28.50;99.90;;;;;;5022495;28;20037;-63
2023/07/23 09:32:03;;;;;;;32.63;19.38;;;28.20;1.00;;;;;;5025717;28;20475;-63
2023/07/23 09:34:29;;;;;;;27.92;22.38;;;28.20;1.00;;;;;;5027907;28;20438;-62
2023/07/23 09:36:55;;;;;;;25.67;21.48;;;28.20;1.00;;;;;;5032627;28;20029;-63
2023/07/23 09:39:25;;;;;;;17.10;13.55;;;28.30;1.00;;;;;;5025568;28;20030;-63
2023/07/23 09:41:51;;;;;;;15.80;14.20;;;28.40;1.00;;;;;;5025920;28;20064;-68
2023/07/23 09:44:17;;;;;;;15.98;11.23;;;28.60;1.00;;;;;;5022232;28;20116;-63
2023/07/23 09:46:46;;;;;;;27.55;23.10;;;28.60;1.00;;;;;;5021308;28;20049;-63
2023/07/23 09:49:13;;;;;;;22.23;19.02;;;28.70;1.00;;;;;;5031000;28;20029;-63
2023/07/23 09:51:49;;;;;;;15.65;12.38;;;28.80;1.00;;;;;;5033084;28;20083;-63
2023/07/23 09:54:15;;;;;;;16.13;14.50;;;28.80;1.00;;;;;;5027229;28;20572;-63
2023/07/23 09:56:42;;;;;;;19.55;16.20;;;28.80;1.00;;;;;;5042014;28;20026;-63
2023/07/23 09:59:10;;;;;;;17.70;10.25;;;28.70;1.00;;;;;;5028916;28;20077;-63
2023/07/23 10:01:36;;;;;;;15.13;13.52;;;28.60;1.00;;;;;;5024915;28;20053;-63
2023/07/23 10:04:03;;;;;;;13.63;11.32;;;28.50;1.00;;;;;;5024355;28;20037;-63
2023/07/23 10:06:28;;;;;;;16.35;10.43;;;28.50;1.00;;;;;;5032723;28;20026;-63
2023/07/23 10:08:55;;;;;;;19.40;17.00;;;28.50;1.00;;;;;;5031140;28;20032;-63
2023/07/23 10:11:21;;;;;;;18.70;13.70;;;28.50;99.90;;;;;;5031897;28;20013;-63
2023/07/23 10:13:51;;;;;;;31.20;25.15;;;28.60;99.90;;;;;;5032937;28;20034;-63
2023/07/23 10:16:21;;;;;;;16.17;12.23;;;28.70;99.90;;;;;;5032850;28;20048;-63
2023/07/23 10:18:49;;;;;;;38.00;32.75;;;28.90;99.90;;;;;;5032983;28;20061;-63
2023/07/23 10:21:15;;;;;;;31.90;23.35;;;29.30;99.90;;;;;;5032596;28;20028;-63
2023/07/23 10:23:42;;;;;;;27.75;24.08;;;29.50;99.90;;;;;;5032933;28;20036;-63
2023/07/23 10:26:20;;;;;;;27.60;22.55;;;29.70;99.90;;;;;;5032781;28;20029;-63
2023/07/23 10:28:48;;;;;;;28.52;22.98;;;30.00;99.90;;;;;;5032906;28;20078;-63
2023/07/23 10:31:22;;;;;;;28.02;21.85;;;29.80;99.90;;;;;;5032724;28;20113;-63
2023/07/23 10:33:50;;;;;;;21.42;16.85;;;30.00;99.90;;;;;;5032670;28;20572;-63
2023/07/23 10:36:16;;;;;;;17.15;15.15;;;30.70;99.90;;;;;;5017717;28;20037;-63
2023/07/23 10:38:42;;;;;;;43.90;33.85;;;30.20;99.90;;;;;;5032382;28;20025;-63
2023/07/23 10:41:08;;;;;;;12.40;9.52;;;30.20;99.90;;;;;;5028766;28;20021;-62
2023/07/23 10:43:41;;;;;;;18.95;15.63;;;30.30;99.90;;;;;;5032473;28;20028;-63
2023/07/23 10:46:12;;;;;;;25.92;22.75;;;30.40;99.90;;;;;;5033007;28;20029;-63
2023/07/23 10:48:41;;;;;;;12.82;9.85;;;30.60;99.90;;;;;;5026522;28;20020;-63
2023/07/23 10:51:15;;;;;;;12.85;9.48;;;30.30;99.90;;;;;;5034430;28;20079;-62
2023/07/23 10:53:51;;;;;;;38.75;33.97;;;30.20;99.90;;;;;;5029616;28;20026;-61
2023/07/23 10:56:28;;;;;;;35.47;30.38;;;30.50;99.90;;;;;;5034790;28;20033;-61
2023/07/23 10:58:56;;;;;;;28.75;25.65;;;30.80;99.90;;;;;;5031451;28;20866;-61
2023/07/23 11:01:23;;;;;;;17.67;15.15;;;31.00;99.90;;;;;;5023405;28;20040;-61
2023/07/23 11:03:52;;;;;;;21.48;18.67;;;31.20;99.90;;;;;;5029704;28;20056;-61
2023/07/23 11:06:26;;;;;;;12.13;8.73;;;31.30;99.90;;;;;;5025444;28;20061;-62
2023/07/23 11:08:52;;;;;;;29.40;25.15;;;31.20;99.90;;;;;;5032496;28;20048;-62
2023/07/23 11:11:28;;;;;;;11.23;9.77;;;30.80;99.90;;;;;;5031675;28;20546;-62
2023/07/23 11:13:53;;;;;;;10.57;8.60;;;30.60;99.90;;;;;;5034969;28;20105;-65
2023/07/23 11:16:19;;;;;;;29.65;25.77;;;30.70;99.90;;;;;;5034531;28;20108;-61
2023/07/23 11:18:46;;;;;;;19.42;17.42;;;30.70;99.90;;;;;;5033575;28;20124;-62
2023/07/23 11:21:14;;;;;;;10.30;9.18;;;31.20;99.90;;;;;;5029353;28;20026;-61
2023/07/23 11:23:39;;;;;;;16.60;12.70;;;31.10;99.90;;;;;;5024994;28;20022;-62
2023/07/23 11:26:05;;;;;;;10.50;8.90;;;31.00;99.90;;;;;;5031197;28;20029;-62
2023/07/23 11:28:32;;;;;;;20.33;16.48;;;30.70;99.90;;;;;;5025944;28;20034;-61
2023/07/23 11:30:58;;;;;;;23.63;20.60;;;30.60;99.90;;;;;;5018297;28;20422;-61
2023/07/23 11:33:30;;;;;;;22.95;20.63;;;30.70;99.90;;;;;;5031833;28;20117;-61
2023/07/23 11:35:56;;;;;;;32.88;27.98;;;30.90;99.90;;;;;;5035223;28;20547;-61
2023/07/23 11:38:27;;;;;;;23.80;16.48;;;30.70;99.90;;;;;;5034955;28;20029;-61
2023/07/23 11:40:57;;;;;;;19.10;15.90;;;30.90;99.90;;;;;;5035750;28;20090;-61
2023/07/23 11:43:23;;;;;;;16.63;13.05;;;30.90;99.90;;;;;;5029851;28;20379;-61
2023/07/23 11:45:52;;;;;;;26.83;20.35;;;31.80;99.90;;;;;;5026149;28;20137;-61
2023/07/23 11:48:22;;;;;;;13.38;11.20;;;31.20;99.90;;;;;;5034352;28;20029;-61
2023/07/23 11:51:13;;;;;;;16.42;14.40;;;31.70;99.90;;;;;;5035344;28;20078;-62
2023/07/23 11:53:38;;;;;;;21.83;19.52;;;31.90;99.90;;;;;;5034814;28;20029;-62
2023/07/23 11:56:06;;;;;;;30.30;27.02;;;32.30;99.90;;;;;;5035254;28;20060;-62
2023/07/23 11:58:34;;;;;;;24.77;22.17;;;32.00;99.90;;;;;;5035004;28;20037;-62
2023/07/23 12:01:00;;;;;;;27.25;24.35;;;31.70;99.90;;;;;;5035063;28;20443;-61
2023/07/23 12:03:26;;;;;;;24.83;19.33;;;32.60;99.90;;;;;;5034888;28;20031;-62
2023/07/23 12:05:53;;;;;;;30.90;27.50;;;34.90;99.90;;;;;;5035172;28;20029;-61
2023/07/23 12:08:18;;;;;;;25.40;21.85;;;35.70;99.90;;;;;;5035158;28;20075;-62
2023/07/23 12:10:44;;;;;;;29.05;26.23;;;34.70;99.90;;;;;;5033652;28;20014;-62
2023/07/23 12:13:10;;;;;;;24.55;21.95;;;35.10;99.90;;;;;;5035263;28;20041;-62
2023/07/23 12:15:40;;;;;;;27.55;24.60;;;37.70;99.90;;;;;;5033425;28;20120;-62
2023/07/23 12:18:09;;;;;;;25.65;23.05;;;39.80;99.90;;;;;;5034896;28;20352;-62
2023/07/23 12:20:38;;;;;;;31.38;27.98;;;39.80;99.90;;;;;;5034969;28;20113;-62
2023/07/23 12:23:04;;;;;;;23.75;21.33;;;39.10;99.90;;;;;;5035127;28;20036;-62
2023/07/23 12:25:30;;;;;;;26.27;23.60;;;37.30;99.90;;;;;;5034732;28;20411;-62
2023/07/23 12:27:55;;;;;;;47.10;41.95;;;35.80;99.90;;;;;;5035080;28;20029;-62
2023/07/23 12:30:21;;;;;;;25.23;22.73;;;35.70;99.90;;;;;;5033358;28;20021;-62
2023/07/23 12:32:48;;;;;;;27.48;24.70;;;37.90;99.90;;;;;;5034441;28;20033;-62
2023/07/23 12:35:14;;;;;;;25.10;22.50;;;38.90;99.90;;;;;;5034417;28;20041;-62